createdAt,value
2016-03-29T00:00:28.630Z,0
2016-03-29T00:01:29.383Z,0
2016-03-29T00:03:37.373Z,0
2016-03-29T00:04:29.048Z,0
2016-03-29T00:05:37.364Z,0
2016-03-29T00:06:28.600Z,0
2016-03-29T00:07:48.837Z,0
2016-03-29T00:08:29.027Z,0
2016-03-29T00:09:28.170Z,0
2016-03-29T00:10:28.766Z,0
2016-03-29T00:11:36.598Z,0
2016-03-29T00:12:28.210Z,0
2016-03-29T00:13:28.431Z,0
2016-03-29T00:14:39.356Z,0
2016-03-29T00:16:28.720Z,0
2016-03-29T00:17:28.426Z,0
2016-03-29T00:20:28.231Z,0
2016-03-29T00:21:37.421Z,0
2016-03-29T00:22:28.987Z,0
2016-03-29T00:23:29.036Z,0
2016-03-29T00:24:28.446Z,0
2016-03-29T00:25:28.620Z,0
2016-03-29T00:26:28.591Z,0
2016-03-29T00:27:28.968Z,0
2016-03-29T00:28:28.706Z,0
2016-03-29T00:29:28.006Z,0
2016-03-29T00:30:25.305Z,0
2016-03-29T00:32:28.200Z,0
2016-03-29T00:33:28.157Z,0
2016-03-29T00:34:28.237Z,0
2016-03-29T00:35:36.725Z,0
2016-03-29T00:36:28.759Z,0
2016-03-29T00:37:36.870Z,0
2016-03-29T00:38:38.170Z,0
2016-03-29T00:39:28.454Z,0
2016-03-29T00:41:28.272Z,0
2016-03-29T00:42:28.431Z,0
2016-03-29T00:43:37.136Z,0
2016-03-29T00:44:38.608Z,0
2016-03-29T00:46:28.926Z,0
2016-03-29T00:47:40.320Z,0
2016-03-29T00:48:28.541Z,0
2016-03-29T00:49:28.357Z,0
2016-03-29T00:51:28.299Z,0
2016-03-29T00:52:27.880Z,0
2016-03-29T00:54:33.620Z,0
2016-03-29T00:55:37.841Z,0
2016-03-29T00:56:33.735Z,0
2016-03-29T00:57:39.065Z,0
2016-03-29T00:58:27.802Z,0
2016-03-29T00:59:28.087Z,0
2016-03-29T01:00:35.214Z,0
2016-03-29T01:01:36.919Z,0
2016-03-29T01:02:42.407Z,0
2016-03-29T01:03:28.050Z,0
2016-03-29T01:06:40.464Z,0
2016-03-29T01:09:28.258Z,0
2016-03-29T01:10:36.371Z,0
2016-03-29T01:11:27.920Z,0
2016-03-29T01:14:33.647Z,0
2016-03-29T01:15:36.619Z,0
2016-03-29T01:16:27.527Z,0
2016-03-29T01:17:27.233Z,0
2016-03-29T01:18:27.455Z,0
2016-03-29T01:19:27.566Z,0
2016-03-29T01:20:35.491Z,0
2016-03-29T01:22:27.732Z,0
2016-03-29T01:23:24.796Z,0
2016-03-29T01:24:27.987Z,0
2016-03-29T01:25:32.942Z,0
2016-03-29T01:27:24.776Z,0
2016-03-29T01:28:37.059Z,0
2016-03-29T01:29:28.297Z,0
2016-03-29T01:30:32.925Z,0
2016-03-29T01:31:28.395Z,0
2016-03-29T01:32:24.633Z,0
2016-03-29T01:33:24.792Z,0
2016-03-29T01:35:27.844Z,0
2016-03-29T01:36:23.986Z,0
2016-03-29T01:37:32.943Z,0
2016-03-29T01:39:27.511Z,0
2016-03-29T01:40:24.654Z,0
2016-03-29T01:41:49.938Z,0
2016-03-29T01:42:32.675Z,0
2016-03-29T01:43:24.600Z,0
2016-03-29T01:44:24.649Z,0
2016-03-29T01:45:27.777Z,0
2016-03-29T01:46:25.436Z,0
2016-03-29T01:47:24.376Z,0
2016-03-29T01:48:25.410Z,0
2016-03-29T01:49:26.100Z,0
2016-03-29T01:51:27.184Z,0
2016-03-29T01:52:27.624Z,0
2016-03-29T01:53:49.893Z,0
2016-03-29T01:54:41.692Z,0
2016-03-29T01:55:37.679Z,0
2016-03-29T01:56:27.134Z,0
2016-03-29T01:57:27.607Z,0
2016-03-29T01:58:47.671Z,0
2016-03-29T02:00:27.942Z,0
2016-03-29T02:01:41.336Z,0
2016-03-29T02:03:27.606Z,0
2016-03-29T02:04:24.500Z,0
2016-03-29T02:05:38.690Z,0
2016-03-29T02:06:27.272Z,0
2016-03-29T02:07:27.211Z,0
2016-03-29T02:08:38.995Z,0
2016-03-29T02:09:27.326Z,0
2016-03-29T02:10:39.283Z,0
2016-03-29T02:11:27.535Z,0
2016-03-29T02:12:27.693Z,0
2016-03-29T02:13:26.461Z,0
2016-03-29T02:14:35.980Z,0
2016-03-29T02:15:46.264Z,0
2016-03-29T02:16:28.392Z,0
2016-03-29T02:18:26.991Z,0
2016-03-29T02:20:26.980Z,0
2016-03-29T02:21:26.812Z,0
2016-03-29T02:22:37.767Z,0
2016-03-29T02:23:38.223Z,0
2016-03-29T02:24:26.772Z,0
2016-03-29T02:25:26.916Z,0
2016-03-29T02:26:27.137Z,0
2016-03-29T02:27:26.593Z,0
2016-03-29T02:28:35.690Z,0
2016-03-29T02:30:37.882Z,0
2016-03-29T02:31:27.025Z,0
2016-03-29T02:34:35.425Z,0
2016-03-29T02:36:36.133Z,0
2016-03-29T02:37:35.839Z,0
2016-03-29T02:38:36.013Z,0
2016-03-29T02:39:34.141Z,0
2016-03-29T02:40:27.097Z,0
2016-03-29T02:41:27.147Z,0
2016-03-29T02:43:26.496Z,0
2016-03-29T02:44:27.467Z,0
2016-03-29T02:45:26.845Z,0
2016-03-29T02:46:26.160Z,0
2016-03-29T02:47:26.256Z,0
2016-03-29T02:48:41.463Z,0
2016-03-29T02:50:26.733Z,0
2016-03-29T02:51:27.502Z,0
2016-03-29T02:52:26.942Z,0
2016-03-29T02:53:26.773Z,0
2016-03-29T02:54:26.306Z,0
2016-03-29T02:55:37.965Z,0
2016-03-29T02:56:27.109Z,0
2016-03-29T02:57:26.580Z,0
2016-03-29T02:59:26.492Z,0
2016-03-29T03:00:26.448Z,0
2016-03-29T03:01:26.248Z,0
2016-03-29T03:02:27.000Z,0
2016-03-29T03:04:34.568Z,0
2016-03-29T03:05:25.867Z,0
2016-03-29T03:07:22.373Z,0
2016-03-29T03:08:59.423Z,0
2016-03-29T03:10:29.208Z,0
2016-03-29T03:12:02.461Z,0
2016-03-29T03:13:21.060Z,0
2016-03-29T03:14:50.907Z,0
2016-03-29T03:16:22.147Z,0
2016-03-29T03:17:43.915Z,0
2016-03-29T03:20:10.173Z,0
2016-03-29T03:20:58.454Z,0
2016-03-29T03:22:58.443Z,0
2016-03-29T03:23:58.369Z,0
2016-03-29T03:24:58.418Z,0
2016-03-29T03:26:06.424Z,0
2016-03-29T03:26:58.565Z,0
2016-03-29T03:28:09.179Z,0
2016-03-29T03:29:06.931Z,0
2016-03-29T03:29:58.119Z,0
2016-03-29T03:30:58.309Z,0
2016-03-29T03:32:06.409Z,0
2016-03-29T03:33:06.458Z,0
2016-03-29T03:34:57.804Z,0
2016-03-29T03:35:57.776Z,0
2016-03-29T03:36:57.966Z,0
2016-03-29T03:37:58.095Z,0
2016-03-29T03:39:07.631Z,0
2016-03-29T03:39:58.662Z,0
2016-03-29T03:41:04.777Z,0
2016-03-29T03:42:11.639Z,0
2016-03-29T03:42:57.717Z,0
2016-03-29T03:43:58.360Z,0
2016-03-29T03:44:57.581Z,0
2016-03-29T03:46:05.603Z,0
2016-03-29T03:47:06.418Z,0
2016-03-29T03:47:58.074Z,0
2016-03-29T03:49:54.799Z,0
2016-03-29T03:50:54.941Z,0
2016-03-29T03:51:57.007Z,0
2016-03-29T03:52:58.321Z,0
2016-03-29T03:53:57.341Z,0
2016-03-29T03:54:57.858Z,0
2016-03-29T03:56:09.520Z,0
2016-03-29T03:56:59.192Z,0
2016-03-29T03:59:00.806Z,0
2016-03-29T04:00:09.796Z,0
2016-03-29T04:00:58.015Z,0
2016-03-29T04:02:57.770Z,0
2016-03-29T04:03:57.742Z,0
2016-03-29T04:04:57.557Z,0
2016-03-29T04:05:57.716Z,0
2016-03-29T04:07:11.580Z,0
2016-03-29T04:07:57.721Z,0
2016-03-29T04:08:54.584Z,0
2016-03-29T04:09:54.445Z,0
2016-03-29T04:10:57.714Z,0
2016-03-29T04:11:57.576Z,0
2016-03-29T04:13:09.878Z,0
2016-03-29T04:13:57.300Z,0
2016-03-29T04:14:57.459Z,0
2016-03-29T04:15:57.227Z,0
2016-03-29T04:16:56.964Z,0
2016-03-29T04:17:57.029Z,0
2016-03-29T04:18:57.689Z,0
2016-03-29T04:19:57.019Z,0
2016-03-29T04:21:09.900Z,0
2016-03-29T04:22:05.699Z,0
2016-03-29T04:22:56.855Z,0
2016-03-29T04:23:57.140Z,0
2016-03-29T04:24:57.985Z,0
2016-03-29T04:26:08.819Z,0
2016-03-29T04:27:02.882Z,0
2016-03-29T04:27:57.541Z,0
2016-03-29T04:28:58.357Z,0
2016-03-29T04:29:54.484Z,0
2016-03-29T04:32:54.414Z,0
2016-03-29T04:34:56.951Z,0
2016-03-29T04:36:24.721Z,0
2016-03-29T04:37:47.178Z,0
2016-03-29T04:39:18.292Z,0
2016-03-29T04:40:56.357Z,0
2016-03-29T04:42:40.612Z,0
2016-03-29T04:44:23.680Z,0
2016-03-29T04:46:00.824Z,0
2016-03-29T04:47:47.783Z,0
2016-03-29T04:49:06.613Z,0
2016-03-29T04:50:37.697Z,5
2016-03-29T04:52:07.433Z,5
2016-03-29T04:53:36.002Z,5
2016-03-29T04:54:56.599Z,5
2016-03-29T04:56:16.963Z,5
2016-03-29T04:57:39.669Z,5
2016-03-29T04:59:02.438Z,10
2016-03-29T05:00:25.505Z,10
2016-03-29T05:01:49.038Z,5
2016-03-29T05:03:10.779Z,5
2016-03-29T05:04:40.625Z,10
2016-03-29T05:05:57.580Z,15
2016-03-29T05:06:11.677Z,15
2016-03-29T05:07:11.929Z,15
2016-03-29T05:08:11.276Z,20
2016-03-29T05:09:11.920Z,25
2016-03-29T05:10:11.642Z,30
2016-03-29T05:11:12.644Z,30
2016-03-29T05:12:11.755Z,35
2016-03-29T05:13:11.400Z,45
2016-03-29T05:14:13.339Z,40
2016-03-29T05:15:11.497Z,40
2016-03-29T05:17:12.050Z,45
2016-03-29T05:18:11.569Z,40
2016-03-29T05:19:13.008Z,30
2016-03-29T05:20:11.715Z,30
2016-03-29T05:21:11.967Z,30
2016-03-29T05:22:12.611Z,25
2016-03-29T05:23:21.066Z,30
2016-03-29T05:25:11.603Z,45
2016-03-29T05:26:11.199Z,55
2016-03-29T05:27:11.327Z,45
2016-03-29T05:28:11.065Z,45
2016-03-29T05:29:21.646Z,35
2016-03-29T05:30:11.852Z,30
2016-03-29T05:32:10.904Z,35
2016-03-29T05:33:11.312Z,30
2016-03-29T05:34:10.393Z,30
2016-03-29T05:36:12.352Z,50
2016-03-29T05:37:12.432Z,65
2016-03-29T05:38:11.528Z,70
2016-03-29T05:39:11.187Z,80
2016-03-29T05:40:10.784Z,90
2016-03-29T05:41:12.661Z,80
2016-03-29T05:42:19.789Z,70
2016-03-29T05:43:11.636Z,65
2016-03-29T05:44:11.169Z,70
2016-03-29T05:45:11.594Z,65
2016-03-29T05:46:19.784Z,70
2016-03-29T05:47:12.381Z,75
2016-03-29T05:49:11.574Z,115
2016-03-29T05:50:11.294Z,95
2016-03-29T05:51:10.877Z,85
2016-03-29T05:52:11.425Z,80
2016-03-29T05:53:11.600Z,105
2016-03-29T05:54:10.635Z,115
2016-03-29T05:55:10.966Z,125
2016-03-29T05:56:10.827Z,100
2016-03-29T05:57:11.688Z,110
2016-03-29T05:59:11.085Z,70
2016-03-29T06:00:12.087Z,45
2016-03-29T06:01:12.231Z,45
2016-03-29T06:02:12.187Z,35
2016-03-29T06:03:20.346Z,30
2016-03-29T06:04:11.880Z,25
2016-03-29T06:05:11.789Z,45
2016-03-29T06:06:11.917Z,75
2016-03-29T06:07:10.513Z,65
2016-03-29T06:09:11.159Z,60
2016-03-29T06:10:10.649Z,70
2016-03-29T06:11:10.153Z,60
2016-03-29T06:12:10.858Z,65
2016-03-29T06:13:11.439Z,80
2016-03-29T06:14:10.052Z,75
2016-03-29T06:15:10.991Z,80
2016-03-29T06:17:11.731Z,115
2016-03-29T06:18:11.657Z,135
2016-03-29T06:19:11.487Z,135
2016-03-29T06:20:10.818Z,90
2016-03-29T06:21:10.539Z,75
2016-03-29T06:22:11.823Z,90
2016-03-29T06:23:10.184Z,95
2016-03-29T06:24:11.656Z,95
2016-03-29T06:25:10.800Z,105
2016-03-29T06:27:10.195Z,110
2016-03-29T06:28:11.745Z,105
2016-03-29T06:30:11.595Z,175
2016-03-29T06:31:10.644Z,135
2016-03-29T06:32:11.506Z,140
2016-03-29T06:33:11.289Z,100
2016-03-29T06:34:11.183Z,195
2016-03-29T06:35:09.905Z,205
2016-03-29T06:36:11.500Z,145
2016-03-29T06:37:10.692Z,130
2016-03-29T06:38:10.741Z,125
2016-03-29T06:39:11.525Z,110
2016-03-29T06:40:10.355Z,130
2016-03-29T06:41:11.827Z,125
2016-03-29T06:42:10.392Z,130
2016-03-29T06:43:11.269Z,160
2016-03-29T06:44:12.022Z,215
2016-03-29T06:45:11.587Z,235
2016-03-29T06:46:10.388Z,225
2016-03-29T06:47:09.747Z,225
2016-03-29T06:48:10.815Z,220
2016-03-29T06:49:11.427Z,200
2016-03-29T06:50:10.445Z,160
2016-03-29T06:51:11.557Z,150
2016-03-29T06:52:18.419Z,125
2016-03-29T06:53:10.391Z,125
2016-03-29T06:54:11.150Z,105
2016-03-29T06:55:10.291Z,90
2016-03-29T06:56:09.650Z,100
2016-03-29T06:58:09.779Z,150
2016-03-29T06:59:13.833Z,135
2016-03-29T07:00:13.704Z,115
2016-03-29T07:01:13.107Z,140
2016-03-29T07:02:09.716Z,125
2016-03-29T07:03:13.631Z,155
2016-03-29T07:04:14.004Z,245
2016-03-29T07:05:21.615Z,345
2016-03-29T07:06:13.474Z,290
2016-03-29T07:07:12.833Z,200
2016-03-29T07:08:12.991Z,230
2016-03-29T07:09:13.195Z,280
2016-03-29T07:10:10.633Z,285
2016-03-29T07:11:10.417Z,270
2016-03-29T07:13:12.779Z,200
2016-03-29T07:15:18.316Z,230
2016-03-29T07:16:10.301Z,195
2016-03-29T07:17:13.897Z,170
2016-03-29T07:18:12.743Z,170
2016-03-29T07:19:12.574Z,205
2016-03-29T07:20:12.701Z,185
2016-03-29T07:21:10.001Z,230
2016-03-29T07:22:09.457Z,245
2016-03-29T07:24:13.133Z,220
2016-03-29T07:25:12.075Z,265
2016-03-29T07:26:12.421Z,235
2016-03-29T07:27:10.064Z,220
2016-03-29T07:28:09.739Z,195
2016-03-29T07:29:09.319Z,190
2016-03-29T07:30:12.963Z,170
2016-03-29T07:31:09.622Z,190
2016-03-29T07:32:12.764Z,205
2016-03-29T07:33:09.814Z,215
2016-03-29T07:34:09.520Z,160
2016-03-29T07:35:09.741Z,165
2016-03-29T07:36:10.166Z,205
2016-03-29T07:37:10.325Z,325
2016-03-29T07:38:12.766Z,305
2016-03-29T07:39:09.300Z,305
2016-03-29T07:40:13.427Z,365
2016-03-29T07:41:21.961Z,365
2016-03-29T07:42:10.292Z,355
2016-03-29T07:43:10.216Z,315
2016-03-29T07:44:10.266Z,330
2016-03-29T07:45:09.893Z,315
2016-03-29T07:47:10.899Z,325
2016-03-29T07:48:11.574Z,350
2016-03-29T07:49:20.576Z,250
2016-03-29T07:50:12.893Z,205
2016-03-29T07:51:10.129Z,225
2016-03-29T07:52:09.585Z,265
2016-03-29T07:53:10.415Z,235
2016-03-29T07:54:12.716Z,200
2016-03-29T07:55:10.624Z,150
2016-03-29T07:56:12.251Z,175
2016-03-29T07:57:12.068Z,235
2016-03-29T07:58:13.195Z,185
2016-03-29T07:59:13.088Z,200
2016-03-29T08:00:12.904Z,220
2016-03-29T08:01:12.859Z,330
2016-03-29T08:02:12.565Z,390
2016-03-29T08:03:20.646Z,345
2016-03-29T08:04:12.601Z,250
2016-03-29T08:05:23.995Z,230
2016-03-29T08:06:13.670Z,250
2016-03-29T08:07:13.751Z,215
2016-03-29T08:08:12.862Z,210
2016-03-29T08:09:12.069Z,275
2016-03-29T08:10:13.290Z,225
2016-03-29T08:11:12.464Z,250
2016-03-29T08:12:12.483Z,255
2016-03-29T08:13:12.594Z,355
2016-03-29T08:14:12.207Z,265
2016-03-29T08:15:12.538Z,320
2016-03-29T08:16:12.525Z,355
2016-03-29T08:17:12.153Z,275
2016-03-29T08:18:13.343Z,315
2016-03-29T08:19:13.002Z,335
2016-03-29T08:20:23.441Z,190
2016-03-29T08:21:13.429Z,175
2016-03-29T08:22:12.104Z,225
2016-03-29T08:23:12.200Z,265
2016-03-29T08:24:18.797Z,200
2016-03-29T08:25:12.080Z,165
2016-03-29T08:26:12.724Z,210
2016-03-29T08:27:13.554Z,285
2016-03-29T08:28:23.588Z,280
2016-03-29T08:29:12.029Z,320
2016-03-29T08:30:12.376Z,405
2016-03-29T08:31:26.565Z,480
2016-03-29T08:32:12.271Z,515
2016-03-29T08:33:12.351Z,465
2016-03-29T08:34:12.370Z,410
2016-03-29T08:35:12.779Z,350
2016-03-29T08:36:11.860Z,390
2016-03-29T08:37:11.988Z,410
2016-03-29T08:38:12.240Z,385
2016-03-29T08:40:12.683Z,365
2016-03-29T08:41:12.201Z,460
2016-03-29T08:42:12.986Z,390
2016-03-29T08:43:12.003Z,380
2016-03-29T08:44:12.850Z,425
2016-03-29T08:45:12.399Z,435
2016-03-29T08:46:24.575Z,405
2016-03-29T08:47:11.592Z,395
2016-03-29T08:48:20.611Z,345
2016-03-29T08:49:12.348Z,355
2016-03-29T08:50:12.147Z,305
2016-03-29T08:51:11.885Z,315
2016-03-29T08:52:12.074Z,400
2016-03-29T08:53:24.250Z,465
2016-03-29T08:54:11.502Z,485
2016-03-29T08:55:12.396Z,465
2016-03-29T08:56:12.649Z,370
2016-03-29T08:57:11.838Z,385
2016-03-29T08:58:11.732Z,390
2016-03-29T08:59:12.016Z,445
2016-03-29T09:00:12.346Z,380
2016-03-29T09:01:09.271Z,370
2016-03-29T09:02:12.429Z,330
2016-03-29T09:03:12.245Z,300
2016-03-29T09:04:20.045Z,380
2016-03-29T09:05:11.970Z,430
2016-03-29T09:06:33.552Z,355
2016-03-29T09:08:08.682Z,380
2016-03-29T09:09:08.652Z,400
2016-03-29T09:10:08.437Z,525
2016-03-29T09:11:18.330Z,450
2016-03-29T09:12:11.567Z,420
2016-03-29T09:13:09.242Z,380
2016-03-29T09:14:10.400Z,400
2016-03-29T09:15:08.637Z,370
2016-03-29T09:16:10.703Z,365
2016-03-29T09:17:09.862Z,360
2016-03-29T09:18:17.927Z,360
2016-03-29T09:19:08.804Z,375
2016-03-29T09:20:08.761Z,415
2016-03-29T09:21:09.950Z,405
2016-03-29T09:22:08.845Z,455
2016-03-29T09:23:09.487Z,545
2016-03-29T09:24:09.975Z,570
2016-03-29T09:25:09.962Z,480
2016-03-29T09:26:09.745Z,425
2016-03-29T09:27:09.998Z,360
2016-03-29T09:28:08.422Z,320
2016-03-29T09:29:10.691Z,255
2016-03-29T09:30:08.927Z,240
2016-03-29T09:31:09.321Z,275
2016-03-29T09:32:08.480Z,360
2016-03-29T09:33:09.421Z,450
2016-03-29T09:34:08.970Z,390
2016-03-29T09:35:09.848Z,420
2016-03-29T09:36:08.397Z,435
2016-03-29T09:37:08.385Z,435
2016-03-29T09:38:08.621Z,330
2016-03-29T09:39:08.655Z,260
2016-03-29T09:40:08.721Z,265
2016-03-29T09:41:16.754Z,360
2016-03-29T09:42:07.913Z,340
2016-03-29T09:43:09.306Z,335
2016-03-29T09:44:08.575Z,355
2016-03-29T09:45:08.937Z,315
2016-03-29T09:46:08.289Z,375
2016-03-29T09:47:09.229Z,350
2016-03-29T09:50:08.908Z,355
2016-03-29T09:51:08.239Z,360
2016-03-29T09:52:08.914Z,335
2016-03-29T09:53:08.447Z,325
2016-03-29T09:54:08.295Z,340
2016-03-29T09:55:08.734Z,375
2016-03-29T09:56:09.050Z,375
2016-03-29T09:57:18.569Z,425
2016-03-29T09:58:08.992Z,425
2016-03-29T09:59:09.574Z,445
2016-03-29T10:00:09.466Z,440
2016-03-29T10:01:09.735Z,490
2016-03-29T10:02:08.409Z,455
2016-03-29T10:03:09.365Z,455
2016-03-29T10:04:08.212Z,450
2016-03-29T10:05:10.979Z,450
2016-03-29T10:06:08.514Z,445
2016-03-29T10:07:09.845Z,435
2016-03-29T10:08:10.035Z,435
2016-03-29T10:09:08.772Z,425
2016-03-29T10:10:08.978Z,460
2016-03-29T10:11:08.434Z,540
2016-03-29T10:12:09.233Z,510
2016-03-29T10:13:09.268Z,465
2016-03-29T10:14:09.442Z,420
2016-03-29T10:15:08.913Z,380
2016-03-29T10:16:09.323Z,340
2016-03-29T10:17:18.840Z,330
2016-03-29T10:18:16.625Z,355
2016-03-29T10:19:09.612Z,430
2016-03-29T10:20:09.348Z,465
2016-03-29T10:21:09.133Z,425
2016-03-29T10:22:08.385Z,415
2016-03-29T10:23:08.638Z,425
2016-03-29T10:24:09.031Z,420
2016-03-29T10:25:08.206Z,435
2016-03-29T10:26:08.256Z,470
2016-03-29T10:27:08.570Z,445
2016-03-29T10:28:08.620Z,465
2016-03-29T10:29:09.325Z,460
2016-03-29T10:30:09.422Z,390
2016-03-29T10:31:07.909Z,375
2016-03-29T10:33:09.696Z,275
2016-03-29T10:34:25.667Z,315
2016-03-29T10:35:08.826Z,335
2016-03-29T10:36:08.907Z,265
2016-03-29T10:38:08.849Z,190
2016-03-29T10:39:09.509Z,185
2016-03-29T10:40:08.621Z,190
2016-03-29T10:41:08.202Z,180
2016-03-29T10:42:09.251Z,165
2016-03-29T10:43:09.035Z,190
2016-03-29T10:45:08.181Z,255
2016-03-29T10:46:08.950Z,270
2016-03-29T10:47:07.983Z,315
2016-03-29T10:48:08.923Z,325
2016-03-29T10:49:25.379Z,310
2016-03-29T10:50:08.085Z,300
2016-03-29T10:51:08.166Z,325
2016-03-29T10:52:10.044Z,405
2016-03-29T10:53:07.750Z,410
2016-03-29T10:54:07.752Z,470
2016-03-29T10:55:08.365Z,405
2016-03-29T10:56:07.758Z,405
2016-03-29T10:57:07.917Z,400
2016-03-29T10:58:08.857Z,395
2016-03-29T10:59:08.642Z,425
2016-03-29T11:00:08.816Z,410
2016-03-29T11:01:09.928Z,360
2016-03-29T11:02:07.164Z,315
2016-03-29T11:03:08.261Z,255
2016-03-29T11:04:07.624Z,245
2016-03-29T11:05:08.297Z,235
2016-03-29T11:06:08.738Z,185
2016-03-29T11:07:08.224Z,150
2016-03-29T11:09:07.590Z,225
2016-03-29T11:10:09.124Z,260
2016-03-29T11:11:08.970Z,280
2016-03-29T11:12:08.504Z,305
2016-03-29T11:13:08.726Z,315
2016-03-29T11:14:08.900Z,340
2016-03-29T11:15:08.903Z,350
2016-03-29T11:16:09.061Z,380
2016-03-29T11:18:08.582Z,395
2016-03-29T11:19:08.304Z,390
2016-03-29T11:20:08.963Z,410
2016-03-29T11:21:08.044Z,460
2016-03-29T11:22:09.187Z,505
2016-03-29T11:23:09.534Z,510
2016-03-29T11:24:16.661Z,510
2016-03-29T11:25:09.117Z,485
2016-03-29T11:26:08.167Z,350
2016-03-29T11:27:08.014Z,255
2016-03-29T11:28:07.189Z,280
2016-03-29T11:29:08.566Z,295
2016-03-29T11:30:09.100Z,295
2016-03-29T11:31:08.352Z,285
2016-03-29T11:32:08.824Z,310
2016-03-29T11:33:09.030Z,345
2016-03-29T11:34:09.157Z,390
2016-03-29T11:35:07.550Z,350
2016-03-29T11:36:08.521Z,285
2016-03-29T11:38:36.386Z,220
2016-03-29T11:40:25.049Z,305
2016-03-29T11:42:11.772Z,435
2016-03-29T11:43:59.840Z,480
2016-03-29T11:45:48.201Z,495
2016-03-29T11:47:35.442Z,460
2016-03-29T11:49:27.697Z,480
2016-03-29T11:51:33.390Z,515
2016-03-29T11:53:36.286Z,480
2016-03-29T11:55:48.792Z,465
2016-03-29T11:58:20.253Z,430
2016-03-29T12:01:04.042Z,315
2016-03-29T12:03:27.344Z,320
2016-03-29T12:06:03.555Z,405
2016-03-29T12:06:49.168Z,315
2016-03-29T12:07:18.587Z,300
2016-03-29T12:08:30.027Z,325
2016-03-29T12:09:38.373Z,420
2016-03-29T12:10:19.485Z,440
2016-03-29T12:11:19.285Z,405
2016-03-29T12:12:27.381Z,340
2016-03-29T12:13:19.571Z,300
2016-03-29T12:14:18.698Z,265
2016-03-29T12:15:18.998Z,210
2016-03-29T12:16:19.237Z,170
2016-03-29T12:17:18.301Z,160
2016-03-29T12:18:19.303Z,185
2016-03-29T12:19:18.322Z,290
2016-03-29T12:20:19.167Z,275
2016-03-29T12:21:19.702Z,205
2016-03-29T12:22:18.486Z,200
2016-03-29T12:23:19.333Z,200
2016-03-29T12:24:19.898Z,230
2016-03-29T12:25:22.292Z,320
2016-03-29T12:26:21.872Z,385
2016-03-29T12:27:21.859Z,425
2016-03-29T12:29:34.192Z,385
2016-03-29T12:30:21.789Z,395
2016-03-29T12:31:22.105Z,375
2016-03-29T12:32:33.888Z,420
2016-03-29T12:33:22.078Z,450
2016-03-29T12:34:22.425Z,455
2016-03-29T12:35:22.724Z,440
2016-03-29T12:36:30.368Z,400
2016-03-29T12:37:21.385Z,455
2016-03-29T12:38:31.857Z,505
2016-03-29T12:39:22.657Z,485
2016-03-29T12:41:21.943Z,395
2016-03-29T12:42:21.602Z,340
2016-03-29T12:43:21.590Z,325
2016-03-29T12:44:22.280Z,350
2016-03-29T12:45:22.643Z,385
2016-03-29T12:46:22.176Z,370
2016-03-29T12:47:22.273Z,265
2016-03-29T12:48:22.666Z,195
2016-03-29T12:49:22.450Z,170
2016-03-29T12:50:22.124Z,160
2016-03-29T12:51:22.159Z,155
2016-03-29T12:52:21.567Z,150
2016-03-29T12:53:22.257Z,150
2016-03-29T12:54:21.931Z,150
2016-03-29T12:55:21.841Z,135
2016-03-29T12:56:22.172Z,145
2016-03-29T12:57:21.892Z,155
2016-03-29T12:58:22.458Z,150
2016-03-29T12:59:21.695Z,195
2016-03-29T13:00:21.588Z,225
2016-03-29T13:01:21.653Z,250
2016-03-29T13:02:21.640Z,305
2016-03-29T13:04:30.099Z,340
2016-03-29T13:06:09.745Z,360
2016-03-29T13:07:29.607Z,370
2016-03-29T13:09:32.550Z,360
2016-03-29T13:11:29.696Z,395
2016-03-29T13:13:42.202Z,320
2016-03-29T13:15:47.473Z,230
2016-03-29T13:17:55.981Z,220
2016-03-29T13:19:53.267Z,300
2016-03-29T13:22:03.241Z,365
2016-03-29T13:24:34.856Z,305
2016-03-29T13:26:37.361Z,260
2016-03-29T13:28:48.210Z,380
2016-03-29T13:31:11.781Z,285
2016-03-29T13:32:50.893Z,315
2016-03-29T13:33:05.505Z,315
2016-03-29T13:34:05.430Z,280
2016-03-29T13:35:06.104Z,245
2016-03-29T13:36:05.247Z,230
2016-03-29T13:37:05.750Z,190
2016-03-29T13:38:05.674Z,165
2016-03-29T13:40:09.399Z,110
2016-03-29T13:41:39.229Z,105
2016-03-29T13:43:10.501Z,125
2016-03-29T13:44:48.315Z,195
2016-03-29T13:46:16.884Z,310
2016-03-29T13:47:47.324Z,380
2016-03-29T13:49:21.580Z,340
2016-03-29T13:50:49.004Z,285
2016-03-29T13:52:23.760Z,275
2016-03-29T13:54:01.234Z,245
2016-03-29T13:55:29.986Z,250
2016-03-29T13:56:57.914Z,235
2016-03-29T13:58:28.338Z,285
2016-03-29T14:00:01.516Z,350
2016-03-29T14:01:32.799Z,360
2016-03-29T14:03:07.726Z,295
2016-03-29T14:04:44.151Z,260
2016-03-29T14:06:07.500Z,240
2016-03-29T14:07:34.512Z,230
2016-03-29T14:08:39.096Z,235
2016-03-29T14:09:01.692Z,235
2016-03-29T14:09:55.181Z,255
2016-03-29T14:10:55.685Z,280
2016-03-29T14:11:54.078Z,285
2016-03-29T14:12:53.440Z,300
2016-03-29T14:13:53.756Z,290
2016-03-29T14:14:55.009Z,285
2016-03-29T14:15:55.386Z,295
2016-03-29T14:17:12.672Z,300
2016-03-29T14:17:54.172Z,280
2016-03-29T14:18:54.691Z,285
2016-03-29T14:19:53.180Z,305
2016-03-29T14:21:53.372Z,275
2016-03-29T14:22:52.578Z,280
2016-03-29T14:23:52.597Z,265
2016-03-29T14:26:52.308Z,225
2016-03-29T14:28:03.094Z,230
2016-03-29T14:29:04.441Z,215
2016-03-29T14:29:53.097Z,210
2016-03-29T14:30:55.288Z,195
2016-03-29T14:31:52.368Z,195
2016-03-29T14:33:00.327Z,190
2016-03-29T14:33:53.030Z,190
2016-03-29T14:34:52.970Z,215
2016-03-29T14:36:04.632Z,260
2016-03-29T14:36:53.148Z,275
2016-03-29T14:37:52.525Z,275
2016-03-29T14:39:02.609Z,285
2016-03-29T14:40:54.173Z,260
2016-03-29T14:41:53.223Z,245
2016-03-29T14:42:54.195Z,230
2016-03-29T14:43:52.682Z,235
2016-03-29T14:44:53.200Z,240
2016-03-29T14:45:52.609Z,250
2016-03-29T14:46:55.565Z,295
2016-03-29T14:47:52.927Z,385
2016-03-29T14:48:52.711Z,365
2016-03-29T14:49:53.683Z,320
2016-03-29T14:50:52.466Z,310
2016-03-29T14:51:52.531Z,285
2016-03-29T14:52:52.597Z,280
2016-03-29T14:53:52.396Z,255
2016-03-29T14:54:53.711Z,245
2016-03-29T14:56:52.857Z,230
2016-03-29T14:57:52.547Z,230
2016-03-29T14:59:00.741Z,240
2016-03-29T14:59:52.350Z,255
2016-03-29T15:01:03.355Z,285
2016-03-29T15:01:52.933Z,310
2016-03-29T15:02:53.921Z,315
2016-03-29T15:03:53.438Z,315
2016-03-29T15:04:53.395Z,290
2016-03-29T15:06:02.556Z,295
2016-03-29T15:06:53.431Z,320
2016-03-29T15:08:04.296Z,340
2016-03-29T15:08:52.484Z,300
2016-03-29T15:09:52.189Z,270
2016-03-29T15:10:53.067Z,240
2016-03-29T15:11:53.804Z,230
2016-03-29T15:12:54.478Z,260
2016-03-29T15:13:53.278Z,300
2016-03-29T15:14:53.031Z,310
2016-03-29T15:15:53.253Z,280
2016-03-29T15:16:54.098Z,235
2016-03-29T15:18:03.136Z,240
2016-03-29T15:18:52.464Z,250
2016-03-29T15:19:52.919Z,220
2016-03-29T15:21:01.206Z,195
2016-03-29T15:21:52.175Z,170
2016-03-29T15:23:01.617Z,145
2016-03-29T15:23:51.867Z,140
2016-03-29T15:26:00.422Z,135
2016-03-29T15:26:52.391Z,135
2016-03-29T15:27:54.424Z,140
2016-03-29T15:28:52.005Z,145
2016-03-29T15:29:53.930Z,145
2016-03-29T15:30:52.933Z,155
2016-03-29T15:31:51.827Z,155
2016-03-29T15:32:51.829Z,140
2016-03-29T15:33:53.082Z,135
2016-03-29T15:35:01.494Z,150
2016-03-29T15:36:03.371Z,155
2016-03-29T15:36:52.652Z,150
2016-03-29T15:37:53.765Z,145
2016-03-29T15:40:03.601Z,235
2016-03-29T15:40:52.476Z,275
2016-03-29T15:41:52.712Z,260
2016-03-29T15:42:52.856Z,240
2016-03-29T15:43:52.140Z,225
2016-03-29T15:45:02.615Z,195
2016-03-29T15:45:52.756Z,190
2016-03-29T15:46:53.836Z,185
2016-03-29T15:47:53.323Z,205
2016-03-29T15:48:52.888Z,180
2016-03-29T15:50:52.315Z,130
2016-03-29T15:52:52.820Z,135
2016-03-29T15:53:53.511Z,140
2016-03-29T15:54:53.936Z,195
2016-03-29T15:55:52.250Z,235
2016-03-29T15:57:02.475Z,225
2016-03-29T15:57:54.131Z,195
2016-03-29T15:58:53.555Z,175
2016-03-29T15:59:53.339Z,190
2016-03-29T16:01:00.399Z,215
2016-03-29T16:02:51.814Z,160
2016-03-29T16:03:52.869Z,140
2016-03-29T16:04:52.565Z,130
2016-03-29T16:06:00.808Z,125
2016-03-29T16:07:01.041Z,125
2016-03-29T16:07:52.681Z,120
2016-03-29T16:08:54.243Z,110
2016-03-29T16:10:10.554Z,105
2016-03-29T16:10:51.648Z,105
2016-03-29T16:11:53.243Z,100
2016-03-29T16:13:00.431Z,110
2016-03-29T16:13:53.074Z,120
2016-03-29T16:14:54.451Z,130
2016-03-29T16:15:52.265Z,140